createdAt,value
2022-12-26T00:02:00.787Z,102078.85
2022-12-26T00:04:51.901Z,102072.70
2022-12-26T00:07:18.094Z,102068.08
2022-12-26T00:09:46.961Z,102068.14
2022-12-26T00:12:15.525Z,102068.91
2022-12-26T00:14:44.218Z,102068.11
2022-12-26T00:17:12.745Z,102072.77
2022-12-26T00:19:41.360Z,102070.67
2022-12-26T00:22:09.901Z,102068.54
2022-12-26T00:24:39.024Z,102074.33
2022-12-26T00:27:07.637Z,102069.81
2022-12-26T00:29:36.327Z,102067.52
2022-12-26T00:32:05.248Z,102063.50
2022-12-26T00:34:34.086Z,102065.14
2022-12-26T00:37:02.769Z,102063.05
2022-12-26T00:39:31.508Z,102052.17
2022-12-26T00:42:00.063Z,102046.77
2022-12-26T00:44:28.612Z,102047.47
2022-12-26T00:46:57.290Z,102046.23
2022-12-26T00:49:26.676Z,102048.05
2022-12-26T00:51:55.249Z,102046.73
2022-12-26T00:54:23.915Z,102050.98
2022-12-26T00:56:52.439Z,102056.43
2022-12-26T00:59:21.584Z,102061.55
2022-12-26T01:01:50.351Z,102063.17
2022-12-26T01:04:19.253Z,102067.03
2022-12-26T01:06:47.783Z,102070.76
2022-12-26T01:09:16.395Z,102071.66
2022-12-26T01:11:44.990Z,102078.02
2022-12-26T01:14:18.016Z,102071.66
2022-12-26T01:16:47.658Z,102061.31
2022-12-26T01:19:16.486Z,102057.55
2022-12-26T01:21:45.156Z,102061.42
2022-12-26T01:24:14.106Z,102064.23
2022-12-26T01:26:42.711Z,102065.98
2022-12-26T01:29:11.302Z,102058.73
2022-12-26T01:31:39.835Z,102061.23
2022-12-26T01:34:09.057Z,102062.67
2022-12-26T01:36:37.730Z,102061.35
2022-12-26T01:39:06.223Z,102063.41
2022-12-26T01:41:34.915Z,102066.89
2022-12-26T01:44:46.219Z,102071.80
2022-12-26T01:47:15.740Z,102071.09
2022-12-26T01:49:48.504Z,102068.77
2022-12-26T01:52:26.590Z,102061.76
2022-12-26T01:54:56.161Z,102062.42
2022-12-26T01:57:33.726Z,102060.59
2022-12-26T02:00:04.187Z,102059.71
2022-12-26T02:03:27.593Z,102056.57
2022-12-26T02:06:00.990Z,102055.77
2022-12-26T02:08:36.471Z,102056.79
2022-12-26T02:11:08.213Z,102055.20
2022-12-26T02:13:39.406Z,102058.25
2022-12-26T02:16:12.852Z,102062.29
2022-12-26T02:18:41.992Z,102062.75
2022-12-26T02:21:32.288Z,102061.73
2022-12-26T02:24:40.028Z,102056.23
2022-12-26T02:27:30.450Z,102059.20
2022-12-26T02:30:14.153Z,102055.69
2022-12-26T02:33:08.867Z,102053.63
2022-12-26T02:35:56.917Z,102054.00
2022-12-26T02:38:52.642Z,102053.35
2022-12-26T02:41:48.080Z,102047.45
2022-12-26T02:44:52.545Z,102046.08
2022-12-26T02:47:49.247Z,102042.75
2022-12-26T02:50:55.106Z,102039.58
2022-12-26T02:54:04.250Z,102041.47
2022-12-26T02:56:57.313Z,102040.27
2022-12-26T03:00:12.769Z,102034.83
2022-12-26T03:03:20.192Z,102035.89
2022-12-26T03:06:26.626Z,102033.12
2022-12-26T03:09:20.999Z,102027.38
2022-12-26T03:12:16.272Z,102033.39
2022-12-26T03:15:01.437Z,102024.15
2022-12-26T03:18:04.473Z,102024.41
2022-12-26T03:20:37.225Z,102030.48
2022-12-26T03:23:12.144Z,102038.69
2022-12-26T03:26:14.682Z,102045.97
2022-12-26T03:28:44.160Z,102042.45
2022-12-26T03:31:16.107Z,102039.40
2022-12-26T03:34:05.562Z,102041.97
2022-12-26T03:37:11.039Z,102049.63
2022-12-26T03:40:23.482Z,102048.85
2022-12-26T03:43:23.079Z,102049.46
2022-12-26T03:46:58.130Z,102049.08
2022-12-26T03:49:50.890Z,102045.88
2022-12-26T03:52:53.816Z,102049.48
2022-12-26T03:56:04.222Z,102051.16
2022-12-26T03:59:17.018Z,102055.13
2022-12-26T04:02:06.444Z,102062.12
2022-12-26T04:04:59.149Z,102056.69
2022-12-26T04:07:59.065Z,102053.70
2022-12-26T04:11:11.531Z,102059.02
2022-12-26T04:14:11.912Z,102064.79
2022-12-26T04:16:59.285Z,102058.02
2022-12-26T04:19:42.721Z,102057.94
2022-12-26T04:23:15.527Z,102065.17
2022-12-26T04:26:17.280Z,102060.31
2022-12-26T04:29:04.728Z,102058.81
2022-12-26T04:32:23.839Z,102062.72
2022-12-26T04:35:28.891Z,102058.73
2022-12-26T04:38:17.941Z,102055.68
2022-12-26T04:41:11.120Z,102033.55
2022-12-26T04:44:00.226Z,102030.36
2022-12-26T04:46:30.891Z,102023.27
2022-12-26T04:49:19.412Z,102017.29
2022-12-26T04:51:49.502Z,102025.27
2022-12-26T04:54:18.922Z,102022.88
2022-12-26T04:56:47.528Z,102028.05
2022-12-26T04:59:16.819Z,102026.08
2022-12-26T05:02:03.907Z,102028.95
2022-12-26T05:04:51.519Z,102039.73
2022-12-26T05:07:42.514Z,102046.84
2022-12-26T05:10:42.170Z,102044.54
2022-12-26T05:13:11.536Z,102046.13
2022-12-26T05:15:58.288Z,102041.20
2022-12-26T05:18:45.287Z,102043.74
2022-12-26T05:21:38.499Z,102054.88
2022-12-26T05:24:29.740Z,102062.77
2022-12-26T05:27:17.121Z,102059.95
2022-12-26T05:29:45.851Z,102071.35
2022-12-26T05:32:14.538Z,102085.04
2022-12-26T05:34:43.157Z,102084.46
2022-12-26T05:37:11.857Z,102083.51
2022-12-26T05:39:40.460Z,102087.14
2022-12-26T05:42:09.021Z,102091.27
2022-12-26T05:44:37.866Z,102088.02
2022-12-26T05:47:06.546Z,102084.91
2022-12-26T05:49:35.299Z,102075.48
2022-12-26T05:52:04.281Z,102071.52
2022-12-26T05:54:32.839Z,102076.06
2022-12-26T05:57:01.768Z,102076.05
2022-12-26T06:00:32.636Z,102078.02
2022-12-26T06:03:02.541Z,102072.63
2022-12-26T06:05:32.247Z,102056.84
2022-12-26T06:08:01.052Z,102039.56
2022-12-26T06:10:29.919Z,102037.60
2022-12-26T06:16:36.619Z,102054.34
2022-12-26T06:19:05.221Z,102054.60
2022-12-26T06:21:33.997Z,102053.17
2022-12-26T06:24:02.605Z,102056.64
2022-12-26T06:26:31.230Z,102059.15
2022-12-26T06:28:59.783Z,102058.80
2022-12-26T06:31:28.430Z,102048.80
2022-12-26T06:33:58.856Z,102038.83
2022-12-26T06:36:28.655Z,102035.85
2022-12-26T06:38:58.704Z,102023.15
2022-12-26T06:41:27.315Z,102015.92
2022-12-26T06:43:56.359Z,102016.35
2022-12-26T06:46:27.614Z,102009.96
2022-12-26T06:48:56.323Z,102006.66
2022-12-26T06:51:29.184Z,102013.39
2022-12-26T06:54:02.557Z,102012.77
2022-12-26T06:56:32.960Z,102019.66
2022-12-26T06:59:05.359Z,102020.33
2022-12-26T07:01:35.759Z,102021.69
2022-12-26T07:04:07.868Z,102023.85
2022-12-26T07:06:38.831Z,102013.42
2022-12-26T07:09:14.721Z,102009.91
2022-12-26T07:11:49.582Z,102003.73
2022-12-26T07:14:18.635Z,101998.40
2022-12-26T07:16:47.713Z,101996.88
2022-12-26T07:19:17.871Z,101999.89
2022-12-26T07:21:46.496Z,101993.62
2022-12-26T07:24:19.323Z,101994.38
2022-12-26T07:26:49.845Z,101987.23
2022-12-26T07:29:19.023Z,101984.66
2022-12-26T07:31:47.969Z,101987.44
2022-12-26T07:34:16.714Z,101989.02
2022-12-26T07:36:45.329Z,101993.69
2022-12-26T07:39:14.572Z,101995.14
2022-12-26T07:41:58.315Z,101995.92
2022-12-26T07:44:30.015Z,101995.80
2022-12-26T07:47:00.355Z,101992.52
2022-12-26T07:49:29.016Z,101991.34
2022-12-26T07:51:57.856Z,101995.41
2022-12-26T07:54:28.891Z,102000.23
2022-12-26T07:57:21.728Z,101996.63
2022-12-26T07:59:46.437Z,102001.67
2022-12-26T08:02:15.264Z,102000.26
2022-12-26T08:04:44.134Z,101998.13
2022-12-26T08:07:13.178Z,101995.07
2022-12-26T08:09:43.313Z,101986.14
2022-12-26T08:12:14.020Z,101975.94
2022-12-26T08:14:43.874Z,101972.22
2022-12-26T08:17:16.579Z,101970.35
2022-12-26T08:19:46.120Z,101967.98
2022-12-26T08:22:14.731Z,101966.14
2022-12-26T08:24:43.330Z,101958.02
2022-12-26T08:27:12.384Z,101948.14
2022-12-26T08:29:40.924Z,101941.67
2022-12-26T08:32:09.547Z,101947.23
2022-12-26T08:34:38.205Z,101964.37
2022-12-26T08:37:06.715Z,101973.75
2022-12-26T08:45:26.621Z,101964.94
2022-12-26T08:47:55.470Z,101967.25
2022-12-26T08:50:25.332Z,101963.75
2022-12-26T08:52:53.961Z,101963.70
2022-12-26T08:55:22.657Z,101965.14
2022-12-26T08:57:51.369Z,101955.33
2022-12-26T09:00:24.058Z,101957.90
2022-12-26T09:02:53.841Z,101947.08
2022-12-26T09:05:22.709Z,101943.28
2022-12-26T09:07:51.444Z,101935.13
2022-12-26T09:10:20.097Z,101928.98
2022-12-26T09:12:49.244Z,101919.32
2022-12-26T09:15:17.999Z,101923.05
2022-12-26T09:17:46.536Z,101920.23
2022-12-26T09:20:17.224Z,101915.48
2022-12-26T09:22:51.978Z,101904.55
2022-12-26T09:25:26.726Z,101899.52
2022-12-26T09:27:59.156Z,101886.48
2022-12-26T09:30:28.261Z,101879.86
2022-12-26T09:32:56.915Z,101882.34
2022-12-26T09:35:25.558Z,101885.08
2022-12-26T09:37:54.396Z,101879.88
2022-12-26T09:40:31.970Z,101875.55
2022-12-26T09:43:50.382Z,101871.54
2022-12-26T09:46:33.728Z,101871.79
2022-12-26T09:49:18.605Z,101866.35
2022-12-26T09:51:59.231Z,101869.27
2022-12-26T09:54:40.837Z,101878.38
2022-12-26T09:57:19.089Z,101886.19
2022-12-26T09:59:58.641Z,101895.63
2022-12-26T10:02:27.726Z,101892.24
2022-12-26T10:04:56.758Z,101885.73
2022-12-26T10:07:50.290Z,101880.17
2022-12-26T10:10:51.625Z,101873.41
2022-12-26T10:13:29.859Z,101868.80
2022-12-26T10:16:07.558Z,101858.16
2022-12-26T10:19:13.103Z,101845.36
2022-12-26T10:22:06.385Z,101853.02
2022-12-26T10:24:39.273Z,101862.02
2022-12-26T10:27:17.184Z,101862.20
2022-12-26T10:30:00.236Z,101860.73
2022-12-26T10:32:44.787Z,101857.24
2022-12-26T10:35:27.912Z,101859.11
2022-12-26T10:38:05.577Z,101865.61
2022-12-26T10:40:45.658Z,101867.53
2022-12-26T10:43:35.975Z,101867.21
2022-12-26T10:46:23.799Z,101866.39
2022-12-26T10:48:53.619Z,101853.84
2022-12-26T10:51:22.646Z,101849.73
2022-12-26T10:53:53.959Z,101842.80
2022-12-26T10:56:25.446Z,101834.02
2022-12-26T10:59:04.345Z,101830.22
2022-12-26T11:01:40.309Z,101830.86
2022-12-26T11:07:18.876Z,101806.88
2022-12-26T11:09:56.259Z,101800.17
2022-12-26T11:12:55.901Z,101791.81
2022-12-26T11:15:56.841Z,101788.94
2022-12-26T11:18:50.469Z,101780.59
2022-12-26T11:21:19.217Z,101774.89
2022-12-26T11:23:52.627Z,101767.65
2022-12-26T11:26:32.690Z,101772.97
2022-12-26T11:29:21.911Z,101770.52
2022-12-26T11:31:58.518Z,101767.61
2022-12-26T11:34:47.710Z,101767.50
2022-12-26T11:37:55.648Z,101762.56
2022-12-26T11:40:32.664Z,101750.38
2022-12-26T11:43:05.772Z,101735.77
2022-12-26T11:45:44.448Z,101728.67
2022-12-26T11:48:39.910Z,101729.73
2022-12-26T11:51:10.540Z,101727.95
2022-12-26T11:53:39.316Z,101732.80
2022-12-26T11:56:09.049Z,101727.81
2022-12-26T11:58:37.783Z,101727.98
2022-12-26T12:01:17.889Z,101724.02
2022-12-26T12:03:51.034Z,101721.92
2022-12-26T12:07:04.290Z,101721.41
2022-12-26T12:09:50.296Z,101712.21
2022-12-26T12:12:52.595Z,101710.42
2022-12-26T12:15:42.318Z,101706.02
2022-12-26T12:18:22.841Z,101709.23
2022-12-26T12:21:18.241Z,101707.95
2022-12-26T12:24:14.196Z,101702.77
2022-12-26T12:27:16.731Z,101699.67
2022-12-26T12:30:03.406Z,101691.66
2022-12-26T12:32:56.884Z,101679.70
2022-12-26T12:35:56.212Z,101674.46
2022-12-26T12:38:36.818Z,101680.34
2022-12-26T12:41:32.705Z,101689.79
2022-12-26T12:44:19.750Z,101692.27
2022-12-26T12:47:17.774Z,101695.63
2022-12-26T12:49:46.492Z,101678.81
2022-12-26T12:52:26.926Z,101674.41
2022-12-26T12:55:38.662Z,101672.31
2022-12-26T12:58:34.189Z,101679.92
2022-12-26T13:01:28.461Z,101685.27
2022-12-26T13:04:14.196Z,101686.16
2022-12-26T13:06:46.498Z,101686.68
2022-12-26T13:09:35.332Z,101693.63
2022-12-26T13:12:16.130Z,101697.54
2022-12-26T13:14:53.043Z,101689.92
2022-12-26T13:17:45.674Z,101685.12
2022-12-26T13:20:38.342Z,101678.74
2022-12-26T13:23:37.917Z,101677.02
2022-12-26T13:26:13.936Z,101671.64
2022-12-26T13:29:03.003Z,101668.45
2022-12-26T13:31:40.514Z,101668.80
2022-12-26T13:34:16.167Z,101666.65
2022-12-26T13:36:52.457Z,101666.45
2022-12-26T13:39:27.434Z,101658.48
2022-12-26T13:42:38.388Z,101653.70
2022-12-26T13:45:38.214Z,101647.66
2022-12-26T13:48:18.959Z,101644.10
2022-12-26T13:51:00.344Z,101640.33
2022-12-26T13:53:34.494Z,101639.77
2022-12-26T13:56:38.583Z,101635.20
2022-12-26T14:00:08.258Z,101637.17
2022-12-26T14:03:18.693Z,101633.09
2022-12-26T14:06:20.195Z,101633.42
2022-12-26T14:09:13.044Z,101625.61
2022-12-26T14:11:53.615Z,101630.04
2022-12-26T14:14:37.302Z,101627.91
2022-12-26T14:17:32.567Z,101627.16
2022-12-26T14:20:32.779Z,101622.71
2022-12-26T14:23:45.890Z,101627.70
2022-12-26T14:26:54.914Z,101627.73
2022-12-26T14:29:47.684Z,101631.27
2022-12-26T14:32:44.481Z,101628.09
2022-12-26T14:35:30.887Z,101626.63
2022-12-26T14:38:24.506Z,101624.33
2022-12-26T14:41:04.909Z,101618.48
2022-12-26T14:43:39.802Z,101615.47
2022-12-26T14:46:35.199Z,101613.69
2022-12-26T14:49:29.248Z,101611.57
2022-12-26T14:52:25.771Z,101609.41
2022-12-26T14:54:56.277Z,101609.39
2022-12-26T14:57:44.095Z,101612.36
2022-12-26T15:00:21.727Z,101611.82
2022-12-26T15:03:38.166Z,101607.23
2022-12-26T15:06:18.921Z,101606.54
2022-12-26T15:09:18.709Z,101607.79
2022-12-26T15:12:02.711Z,101614.70
2022-12-26T15:14:40.276Z,101610.68
2022-12-26T15:17:37.982Z,101609.20
2022-12-26T15:20:47.694Z,101608.64
2022-12-26T15:23:33.150Z,101602.27
2022-12-26T15:26:32.819Z,101601.59
2022-12-26T15:29:35.987Z,101596.31
2022-12-26T15:32:12.216Z,101590.97
2022-12-26T15:34:46.833Z,101586.19
2022-12-26T15:37:54.682Z,101588.46
2022-12-26T15:40:36.664Z,101591.63
2022-12-26T15:43:38.765Z,101589.68
2022-12-26T15:46:33.271Z,101577.27
2022-12-26T15:49:26.968Z,101566.66
2022-12-26T15:52:35.262Z,101562.39
2022-12-26T15:55:25.178Z,101564.35
2022-12-26T15:58:06.096Z,101553.36
2022-12-26T16:00:51.463Z,101557.60
2022-12-26T16:03:57.142Z,101557.23
2022-12-26T16:07:20.029Z,101545.89
2022-12-26T16:09:58.786Z,101544.11
2022-12-26T16:12:34.332Z,101543.58
2022-12-26T16:15:10.426Z,101543.73
2022-12-26T16:17:41.483Z,101544.75
2022-12-26T16:20:39.174Z,101539.38
2022-12-26T16:23:14.296Z,101538.31
2022-12-26T16:26:23.225Z,101534.17
2022-12-26T16:28:53.574Z,101537.15
2022-12-26T16:31:28.388Z,101540.48
2022-12-26T16:34:00.358Z,101541.17
2022-12-26T16:36:33.185Z,101540.09
2022-12-26T16:39:02.647Z,101538.83
2022-12-26T16:41:33.082Z,101532.45
2022-12-26T16:44:31.009Z,101531.91
2022-12-26T16:47:05.167Z,101526.74
2022-12-26T16:49:34.891Z,101524.61
2022-12-26T16:52:03.962Z,101517.52
2022-12-26T16:54:42.690Z,101516.79
2022-12-26T16:57:21.875Z,101512.14
2022-12-26T16:59:56.275Z,101505.38
2022-12-26T17:02:32.458Z,101502.89
2022-12-26T17:05:22.553Z,101501.80
2022-12-26T17:07:53.393Z,101509.59
2022-12-26T17:10:36.370Z,101508.55
2022-12-26T17:13:09.912Z,101509.42
2022-12-26T17:15:54.411Z,101513.67
2022-12-26T17:18:50.053Z,101517.00
2022-12-26T17:21:32.853Z,101521.73
2022-12-26T17:24:25.505Z,101517.83
2022-12-26T17:27:17.158Z,101518.00
2022-12-26T17:29:53.875Z,101512.69
2022-12-26T17:32:32.061Z,101507.92
2022-12-26T17:35:25.638Z,101505.95
2022-12-26T17:38:02.348Z,101514.94
2022-12-26T17:40:37.708Z,101519.87
2022-12-26T17:43:07.380Z,101521.44
2022-12-26T17:45:38.928Z,101520.70
2022-12-26T17:48:12.570Z,101514.06
2022-12-26T17:50:45.054Z,101516.77
2022-12-26T17:53:22.583Z,101514.78
2022-12-26T17:55:53.810Z,101507.52
2022-12-26T17:58:23.327Z,101508.88
2022-12-26T18:00:53.056Z,101504.64
2022-12-26T18:03:22.297Z,101501.79
2022-12-26T18:05:51.647Z,101508.36
2022-12-26T18:08:32.745Z,101503.00
2022-12-26T18:11:04.677Z,101494.99
2022-12-26T18:13:34.244Z,101491.09
2022-12-26T18:16:04.713Z,101493.77
2022-12-26T18:18:44.116Z,101487.93
2022-12-26T18:21:15.953Z,101482.61
2022-12-26T18:23:44.768Z,101476.90
2022-12-26T18:26:27.876Z,101474.16
2022-12-26T18:28:57.366Z,101473.42
2022-12-26T18:31:29.228Z,101471.78
2022-12-26T18:33:58.427Z,101468.24
2022-12-26T18:36:36.803Z,101469.45
2022-12-26T18:39:06.319Z,101465.41
2022-12-26T18:41:36.332Z,101457.77
2022-12-26T18:44:05.167Z,101449.95
2022-12-26T18:46:35.629Z,101445.11
2022-12-26T18:49:04.369Z,101442.58
2022-12-26T18:51:32.947Z,101438.31
2022-12-26T18:54:01.575Z,101444.62
2022-12-26T18:56:30.206Z,101444.12
2022-12-26T18:58:58.949Z,101444.06
2022-12-26T19:01:27.909Z,101446.89
2022-12-26T19:03:57.907Z,101440.75
2022-12-26T19:06:30.203Z,101444.98
2022-12-26T19:08:59.212Z,101446.39
2022-12-26T19:11:28.375Z,101440.52
2022-12-26T19:13:57.467Z,101436.77
2022-12-26T19:16:26.135Z,101433.20
2022-12-26T19:18:54.727Z,101431.92
2022-12-26T19:21:23.457Z,101434.34
2022-12-26T19:23:52.576Z,101429.89
2022-12-26T19:26:22.128Z,101429.08
2022-12-26T19:28:56.030Z,101420.53
2022-12-26T19:31:24.779Z,101412.83
2022-12-26T19:33:53.492Z,101411.92
2022-12-26T19:36:22.020Z,101416.08
2022-12-26T19:38:54.368Z,101417.89
2022-12-26T19:41:23.229Z,101412.88
2022-12-26T19:43:59.732Z,101412.30
2022-12-26T19:46:29.000Z,101409.45
2022-12-26T19:48:57.659Z,101407.77
2022-12-26T19:51:26.289Z,101414.64
2022-12-26T19:53:54.973Z,101420.34
2022-12-26T19:56:27.758Z,101420.69
2022-12-26T19:58:57.097Z,101416.92
2022-12-26T20:01:32.253Z,101412.67
2022-12-26T20:04:04.661Z,101404.52
2022-12-26T20:06:37.172Z,101397.76
2022-12-26T20:09:10.320Z,101399.50
2022-12-26T20:11:44.803Z,101395.45
2022-12-26T20:14:17.454Z,101389.60
2022-12-26T20:17:08.655Z,101388.02
2022-12-26T20:19:38.310Z,101391.52
2022-12-26T20:22:07.870Z,101390.23
2022-12-26T20:24:36.430Z,101390.75
2022-12-26T20:27:05.123Z,101387.77
2022-12-26T20:29:33.865Z,101389.88
2022-12-26T20:32:02.680Z,101384.60
2022-12-26T20:34:31.319Z,101384.93
2022-12-26T20:37:00.003Z,101384.55
2022-12-26T20:39:28.716Z,101374.48
2022-12-26T20:41:57.768Z,101370.05
2022-12-26T20:44:26.485Z,101373.77
2022-12-26T20:46:55.739Z,101375.20
2022-12-26T20:49:24.287Z,101378.38
2022-12-26T20:51:52.947Z,101373.70
2022-12-26T20:54:22.736Z,101375.16
2022-12-26T20:56:51.593Z,101368.83
2022-12-26T20:59:20.317Z,101366.91
2022-12-26T21:01:49.097Z,101367.39
2022-12-26T21:04:22.452Z,101369.15
2022-12-26T21:06:52.303Z,101364.09
2022-12-26T21:09:20.967Z,101362.00
2022-12-26T21:11:49.701Z,101360.27
2022-12-26T21:14:21.788Z,101356.25
2022-12-26T21:16:54.765Z,101358.33
2022-12-26T21:19:26.565Z,101363.61
2022-12-26T21:21:56.391Z,101363.98
2022-12-26T21:24:31.214Z,101357.46
2022-12-26T21:26:59.872Z,101358.40
2022-12-26T21:29:32.498Z,101352.80
2022-12-26T21:32:02.879Z,101351.73
2022-12-26T21:34:33.616Z,101341.36
2022-12-26T21:37:21.534Z,101329.59
2022-12-26T21:39:50.859Z,101335.23
2022-12-26T21:42:19.541Z,101339.82
2022-12-26T21:44:48.328Z,101330.66
2022-12-26T21:47:16.900Z,101332.45
2022-12-26T21:49:45.630Z,101327.18
2022-12-26T21:53:40.685Z,101321.47
2022-12-26T21:59:47.805Z,101312.01
2022-12-26T22:02:34.858Z,101316.98
2022-12-26T22:05:03.992Z,101317.89
2022-12-26T22:07:32.886Z,101314.39
2022-12-26T22:10:02.512Z,101313.31
2022-12-26T22:12:49.998Z,101303.51
2022-12-26T22:15:37.431Z,101310.37
2022-12-26T22:18:06.135Z,101310.67
2022-12-26T22:20:35.749Z,101308.55
2022-12-26T22:23:04.985Z,101305.10
2022-12-26T22:25:33.649Z,101306.50
2022-12-26T22:28:02.491Z,101306.84
2022-12-26T22:30:31.093Z,101305.40
2022-12-26T22:32:59.692Z,101305.48
2022-12-26T22:35:28.375Z,101307.95
2022-12-26T22:37:57.276Z,101314.96
2022-12-26T22:40:25.933Z,101307.07
2022-12-26T22:42:54.503Z,101298.89
2022-12-26T22:45:23.102Z,101290.80
2022-12-26T22:47:51.625Z,101285.48
2022-12-26T22:50:20.769Z,101288.83
2022-12-26T22:52:49.443Z,101288.30
2022-12-26T22:55:18.343Z,101282.29
2022-12-26T22:57:51.147Z,101282.26
2022-12-26T23:00:21.189Z,101282.05
2022-12-26T23:02:50.041Z,101272.64
2022-12-26T23:05:19.406Z,101270.35
2022-12-26T23:07:48.288Z,101271.42
2022-12-26T23:10:21.898Z,101267.38
2022-12-26T23:12:51.364Z,101261.05
2022-12-26T23:15:25.054Z,101258.39
2022-12-26T23:18:52.896Z,101255.75
2022-12-26T23:21:44.397Z,101263.62
2022-12-26T23:24:19.040Z,101271.15
2022-12-26T23:26:55.151Z,101269.15
2022-12-26T23:29:43.501Z,101266.16
2022-12-26T23:32:12.350Z,101264.40
2022-12-26T23:34:40.927Z,101268.23
2022-12-26T23:37:09.506Z,101265.89
2022-12-26T23:39:38.104Z,101263.95
2022-12-26T23:42:06.925Z,101261.34
2022-12-26T23:44:35.611Z,101261.56
2022-12-26T23:47:04.322Z,101260.83
2022-12-26T23:49:33.208Z,101260.86
2022-12-26T23:52:02.003Z,101266.47
2022-12-26T23:54:30.488Z,101265.23
2022-12-26T23:56:59.181Z,101263.98
2022-12-26T23:59:28.124Z,101258.70
